CheckWX is a tool to help pilots better visualize weather data.  It is not intended as a substitute for an official pre-flight weather briefing.

07:37:05 UTC

LTAP TAF
Amasya Merzifon Airport
Amasya, Turkey
TAF LTAP 170440Z 1706/1806 03015KT 9999 SCT040 BECMG 1718/1721 VRB02KT

Jun-17@
06:00 UTC

Jun-17 @ 06:00 UTC

Jun-17@
18:00 UTC

Jun-17 @ 18:00 UTC

TAF LTAP 170440Z 1706/1806 03015KT 9999 SCT040
Wind
  • 030° at 15 KTS
Cloud Levels
  • Scattered at 4,000' AGL

Jun-17@
18:00 UTC

Jun-17 @ 18:00 UTC

Jun-18@
06:00 UTC

Jun-18 @ 06:00 UTC

BECMG 1718/1721 VRB02KT

Becoming

Becoming Conditions expected by Mon, Jun 17, 2019 @ 21:00 UTC

Wind
  • Variable at 2 KTS
Cloud Levels
  • Scattered at 4,000' AGL